Flight Track Log - Related Links

Times and Time Zones

All times are in EDT time to prevent confusion due to time zone crossing. See the FLG4262 flight status page for this flight to view local times or setup timezone preferences in your user account.

Time Position Orientation Groundspeed Altitude Reporting Facility
EDT Latitude Longitude Course Direction KTS MPH feet Rate Location/Type
Sat 03:42:24 PM 42.2039 -83.3697 178° South 159 183 1,200  Level Cleveland Center
Sat 03:43:31 PM 42.1433 -83.3667 178° South 213 245 3,200 1,964 Climbing Cleveland Center
Sat 03:44:14 PM 42.1089 -83.3603 172° South 204 235 4,800 2,727 Climbing Cleveland Center
Sat 03:44:26 PM 42.0894 -83.3564 172° South 233 268 5,700 2,381 Climbing Cleveland Center
Sat 03:45:17 PM 42.0742 -83.2806 105° East 266 306 7,300 2,066 Climbing Cleveland Center
Sat 03:45:27 PM 42.0817 -83.2681 51° Northeast 292 336 7,800 2,516 Climbing Cleveland Center
Sat 03:46:19 PM 42.1061 -83.1789 70° East 288 331 9,900 1,842 Climbing Cleveland Center
Sat 03:47:21 PM 42.1428 -83.0725 65° Northeast 313 360 11,300 1,548 Climbing Cleveland Center
Sat 03:48:23 PM 42.1839 -82.9592 64° Northeast 337 388 13,100 1,645 Climbing Cleveland Center
Sat 03:49:25 PM 42.2250 -82.8447 64° Northeast 343 395 14,700 1,500 Climbing Cleveland Center
Sat 03:50:27 PM 42.2678 -82.7267 64° Northeast 351 404 16,200 1,258 Climbing Cleveland Center
Sat 03:51:29 PM 42.3211 -82.5781 64° Northeast 364 419 17,300 871 Climbing Cleveland Center
Sat 03:52:31 PM 42.3667 -82.4442 65° Northeast 388 447 18,000 823 Climbing Cleveland Center
Sat 03:53:33 PM 42.3606 -82.2875 93° East 416 479 19,000 919 Climbing Cleveland Center
Sat 03:54:35 PM 42.3544 -82.1203 93° East 415 478 19,900 919 Climbing Cleveland Center
Sat 03:55:37 PM 42.3475 -81.9625 93° East 416 479 20,900 871 Climbing Cleveland Center
Sat 03:56:39 PM 42.3400 -81.8008 94° East 423 487 21,700 677 Climbing Cleveland Center
Sat 03:57:41 PM 42.3319 -81.6342 94° East 435 501 22,300 581 Climbing Cleveland Center
Sat 03:58:43 PM 42.3247 -81.4681 93° East 438 504 22,900 581 Climbing Cleveland Center
Sat 03:59:45 PM 42.3156 -81.2975 94° East 447 514 23,500 581 Climbing Cleveland Center
Sat 04:00:47 PM 42.3086 -81.1258 93° East 451 519 24,100 629 Climbing Cleveland Center
Sat 04:01:49 PM 42.2969 -80.9264 94° East 451 519 24,800 435 Climbing Cleveland Center
Sat 04:02:51 PM 42.2914 -80.7528 92° East 457 526 25,000 97 Climbing Cleveland Center
Sat 04:03:53 PM 42.2933 -80.5781 89° East 461 531 25,000  Level Cleveland Center
Sat 04:04:55 PM 42.2939 -80.4003 90° East 467 537 25,000  Level Cleveland Center
Sat 04:05:57 PM 42.2939 -80.2242 90° East 467 537 25,000  Level Cleveland Center
Sat 04:06:59 PM 42.2936 -80.0469 90° East 467 537 25,000  Level Cleveland Center
Sat 04:08:01 PM 42.2933 -79.8569 90° East 466 536 25,000  Level Cleveland Center
Sat 04:09:03 PM 42.2925 -79.6822 90° East 467 537 25,000  Level Cleveland Center
Sat 04:10:05 PM 42.2906 -79.5067 91° East 469 540 25,000  Level Cleveland Center
Sat 04:11:07 PM 42.2889 -79.3314 91° East 469 540 25,000  Level Cleveland Center
Sat 04:12:09 PM 42.2869 -79.1200 91° East 473 544 25,000  Level Cleveland Center
Sat 04:13:11 PM 42.2842 -78.9458 91° East 468 539 25,000  Level Cleveland Center
Sat 04:14:13 PM 42.2822 -78.7664 91° East 466 536 25,000  Level Cleveland Center
Sat 04:15:15 PM 42.2800 -78.5933 91° East 465 535 25,000 -435 Level Cleveland Center
Sat 04:16:17 PM 42.2769 -78.4225 91° East 460 529 24,100 -871 Descending Cleveland Center
Sat 04:17:19 PM 42.2739 -78.2639 91° East 434 499 23,200 -1,016 Descending Cleveland Center
Sat 04:18:21 PM 42.2714 -78.0817 91° East 411 473 22,000 -1,065 Descending Cleveland Center
Sat 04:19:23 PM 42.2678 -77.9319 92° East 405 466 21,000 -968 Descending Cleveland Center
Sat 04:20:25 PM 42.2656 -77.7828 91° East 403 464 20,000 -968 Descending Cleveland Center
Sat 04:21:27 PM 42.2617 -77.6364 92° East 398 458 19,000 -484 Descending Cleveland Center
Sat 04:22:29 PM 42.2578 -77.4889 92° East 398 458 19,000  Level Cleveland Center
Sat 04:23:31 PM 42.2519 -77.3078 92° East 403 464 19,000  Level Cleveland Center
Sat 04:24:33 PM 42.2483 -77.1528 92° East 412 474 19,000 -189 Level Cleveland Center
Sat 04:25:38 PM 42.2414 -76.9919 93° East 408 470 18,600 -1,016 Descending New York Center
Sat 04:26:37 PM 42.2397 -76.8606 91° East 382 440 16,900 -1,736 Descending Cleveland Center
Sat 04:27:39 PM 42.2356 -76.7308 92° East 354 407 15,100 -1,610 Descending Cleveland Center
Sat 04:28:40 PM 42.2311 -76.6081 93° East 335 386 13,600 -1,707 Descending Cleveland Center
Sat 04:29:42 PM 42.2028 -76.4731 106° East 318 366 11,600 -1,839 Descending Cleveland Center
Sat 04:30:44 PM 42.1758 -76.3636 108° East 308 354 9,800 -1,810 Descending Cleveland Center
Sat 04:31:38 PM 42.1394 -76.2747 119° Southeast 305 351 8,100 -1,842 Descending New York Center
Sat 04:32:38 PM 42.1022 -76.1767 117° Southeast 300 345 6,300 -1,750 Descending New York Center
Sat 04:33:38 PM 42.0689 -76.0844 116° Southeast 285 328 4,600 -1,200 Descending New York Center
Sat 04:34:38 PM 42.0372 -76.0008 117° Southeast 278 320 3,900 -750 Descending New York Center
Sat 04:35:38 PM 42.0833 -75.9431 43° Northeast 177 204 3,100 -450 Descending New York Center
Sat 04:36:38 PM 42.1381 -75.9306 10° North 145 167 3,000 -500 Descending New York Center
Sat 04:37:38 PM 42.1767 -75.9558 334° Northwest 134 154 2,100 -500 Descending New York Center
Sat 04:38:38 PM 42.2100 -75.9558 360° North 134 154 2,000 -100 Descending New York Center

Login

Don't have an account? Register now (free) for customized features, flight alerts, and more!